Portada
METAR-TAF:

METAR-TAF

Aeroports :

Wallis, França

latitud: 13-14S, longitud: 176-10W, altitud: 23 m

Observació

L'informe es va fer fa 35 minuts, a les 08:30 UTC
Vent 8 kt del Est
Temperatura 28°C
Humitat 84%
Pressió 1012 hPa
Visibilitat 10 km o més

METAR: NLWW 060830Z AUTO 09008KT 9999 FEW019/// 28/25 Q1012 TEMPO 3000 SHRA FEW020CB

Hora: 21:05 (09:05 UTC)

Pronòstic

L'informe es va fer fa 4 hores i 5 minuts, a les 05:00 UTC
Pronòstic vàlid del 06 a les 06 UTC al 07 a les 06 UTC
Vent 10 kt del Est
Visibilitat 10 km o més
Núvols disperses a una alçada de 2000 ft
Temporalment
l' 06 a les 06 UTC al 07 a les 06 UTC
Visibilitat: 3000 m
Escasses núvols a una alçada de 2000 ft, Cumulonimbus.
xàfecs de pluja

TAF: NLWW 060500Z 0606/0706 10010KT 9999 SCT020 TEMPO 0606/0706 3000 SHRA FEW020CB

Observacions i pronòstics meteorològics de més de 4000 aeroports (METAR i TAF).

Les estacions disponibles són els punts grocs i vermells al mapa.

Posi el ratolí al punt desitjat per veure el nom de l'estació.

Feu clic per veure les observacions i els pronòstics meteorològics.

Per canviar el mapa: feu clic els botons verds amb una creu de color negre per apropar; al botó verd amb un guió per allunyar la imatge; o en les fletxes verdes per a mapes adjacents.


METAR-TAF: